createdAt,value
2023-09-04T00:00:03.507Z,103052.94
2023-09-04T00:02:30.015Z,103060.50
2023-09-04T00:04:56.490Z,103056.13
2023-09-04T00:07:23.005Z,103049.06
2023-09-04T00:09:49.476Z,103058.06
2023-09-04T00:12:15.967Z,103048.19
2023-09-04T00:14:42.507Z,103047.59
2023-09-04T00:17:09.031Z,103049.44
2023-09-04T00:19:35.711Z,103060.16
2023-09-04T00:22:02.251Z,103050.03
2023-09-04T00:24:28.740Z,103044.78
2023-09-04T00:26:55.238Z,103045.66
2023-09-04T00:29:21.666Z,103046.78
2023-09-04T00:31:48.237Z,103041.41
2023-09-04T00:34:14.743Z,103040.69
2023-09-04T00:36:41.275Z,103044.34
2023-09-04T00:39:07.883Z,103047.75
2023-09-04T00:41:34.446Z,103046.41
2023-09-04T00:44:00.902Z,103043.00
2023-09-04T00:46:27.596Z,103043.38
2023-09-04T00:48:54.849Z,103035.47
2023-09-04T00:51:21.386Z,103039.00
2023-09-04T00:53:48.683Z,103040.09
2023-09-04T00:56:16.105Z,103034.75
2023-09-04T00:58:42.749Z,103028.78
2023-09-04T01:01:09.487Z,103023.66
2023-09-04T01:03:36.074Z,103029.00
2023-09-04T01:06:02.657Z,103030.72
2023-09-04T01:08:29.283Z,103036.31
2023-09-04T01:11:01.839Z,103027.09
2023-09-04T01:13:38.450Z,103028.19
2023-09-04T01:16:07.019Z,103030.22
2023-09-04T01:18:35.867Z,103032.81
2023-09-04T01:21:03.672Z,103030.97
2023-09-04T01:23:30.382Z,103035.34
2023-09-04T01:26:15.387Z,103029.88
2023-09-04T01:29:00.524Z,103028.91
2023-09-04T01:31:48.631Z,103034.13
2023-09-04T01:34:20.670Z,103031.06
2023-09-04T01:36:48.486Z,103036.94
2023-09-04T01:39:15.346Z,103034.00
2023-09-04T01:41:41.800Z,103031.47
2023-09-04T01:44:08.552Z,103028.63
2023-09-04T01:46:35.781Z,103030.47
2023-09-04T01:49:02.388Z,103038.88
2023-09-04T01:51:28.870Z,103040.59
2023-09-04T01:53:55.325Z,103039.63
2023-09-04T01:56:21.781Z,103043.84
2023-09-04T01:58:48.207Z,103036.66
2023-09-04T02:01:15.475Z,103039.50
2023-09-04T02:03:44.215Z,103035.47
2023-09-04T02:06:10.694Z,103038.25
2023-09-04T02:08:37.195Z,103043.72
2023-09-04T02:11:03.685Z,103048.22
2023-09-04T02:13:30.266Z,103039.34
2023-09-04T02:15:56.873Z,103038.63
2023-09-04T02:18:23.661Z,103036.19
2023-09-04T02:20:50.390Z,103034.97
2023-09-04T02:23:16.833Z,103033.25
2023-09-04T02:25:43.678Z,103031.44
2023-09-04T02:28:10.140Z,103028.66
2023-09-04T02:30:40.204Z,103032.28
2023-09-04T02:33:06.934Z,103034.00
2023-09-04T02:35:34.739Z,103032.06
2023-09-04T02:38:01.196Z,103036.56
2023-09-04T02:40:27.651Z,103018.16
2023-09-04T02:42:54.140Z,103017.81
2023-09-04T02:45:21.422Z,103016.09
2023-09-04T02:47:47.931Z,103011.09
2023-09-04T02:50:14.442Z,103008.31
2023-09-04T02:52:40.919Z,103006.09
2023-09-04T02:55:07.800Z,102996.63
2023-09-04T02:57:34.362Z,102998.69
2023-09-04T03:00:01.916Z,102999.16
2023-09-04T03:02:28.554Z,102988.34
2023-09-04T03:04:55.489Z,102987.75
2023-09-04T03:07:28.036Z,102978.84
2023-09-04T03:09:56.638Z,102982.59
2023-09-04T03:12:25.968Z,102974.69
2023-09-04T03:14:58.633Z,102976.84
2023-09-04T03:17:26.019Z,102978.09
2023-09-04T03:19:56.967Z,102977.22
2023-09-04T03:22:23.921Z,102982.19
2023-09-04T03:24:50.532Z,102987.81
2023-09-04T03:27:17.550Z,102987.31
2023-09-04T03:29:44.046Z,102989.88
2023-09-04T03:32:10.822Z,102986.00
2023-09-04T03:34:38.092Z,102983.25
2023-09-04T03:37:04.843Z,102982.13
2023-09-04T03:39:35.454Z,102982.28
2023-09-04T03:42:01.889Z,102981.28
2023-09-04T03:44:28.317Z,102981.53
2023-09-04T03:46:54.796Z,102985.06
2023-09-04T03:49:21.325Z,102984.09
2023-09-04T03:51:47.801Z,102978.22
2023-09-04T03:54:14.218Z,102971.28
2023-09-04T03:56:40.673Z,102971.28
2023-09-04T03:59:07.100Z,102975.66
2023-09-04T04:01:34.337Z,102978.44
2023-09-04T04:04:01.335Z,102978.94
2023-09-04T04:06:28.004Z,102978.09
2023-09-04T04:08:57.483Z,102972.38
2023-09-04T04:11:24.117Z,102974.19
2023-09-04T04:13:50.708Z,102973.34
2023-09-04T04:16:17.205Z,102963.50
2023-09-04T04:18:43.722Z,102967.03
2023-09-04T04:21:10.220Z,102974.06
2023-09-04T04:23:36.718Z,102972.13
2023-09-04T04:26:04.227Z,102965.81
2023-09-04T04:28:30.744Z,102957.56
2023-09-04T04:30:58.565Z,102965.72
2023-09-04T04:33:25.123Z,102967.97
2023-09-04T04:35:55.016Z,102967.13
2023-09-04T04:38:22.222Z,102967.03
2023-09-04T04:40:48.919Z,102974.19
2023-09-04T04:43:15.449Z,102961.66
2023-09-04T04:45:42.039Z,102959.38
2023-09-04T04:48:08.653Z,102963.13
2023-09-04T04:50:35.210Z,102963.25
2023-09-04T04:53:01.673Z,102957.50
2023-09-04T04:55:28.147Z,102956.78
2023-09-04T04:57:54.793Z,102957.88
2023-09-04T05:00:21.265Z,102953.38
2023-09-04T05:02:47.737Z,102959.06
2023-09-04T05:05:14.187Z,102945.34
2023-09-04T05:07:42.822Z,102943.63
2023-09-04T05:10:10.304Z,102945.06
2023-09-04T05:12:37.061Z,102942.75
2023-09-04T05:15:05.114Z,102948.69
2023-09-04T05:17:31.586Z,102942.00
2023-09-04T05:19:58.121Z,102944.91
2023-09-04T05:22:24.615Z,102944.69
2023-09-04T05:24:51.034Z,102944.06
2023-09-04T05:27:17.510Z,102945.44
2023-09-04T05:29:43.948Z,102950.28
2023-09-04T05:32:10.429Z,102947.16
2023-09-04T05:34:40.912Z,102946.44
2023-09-04T05:37:08.718Z,102938.69
2023-09-04T05:39:35.188Z,102939.06
2023-09-04T05:42:01.653Z,102944.66
2023-09-04T05:44:28.171Z,102946.69
2023-09-04T05:46:54.663Z,102947.78
2023-09-04T05:49:21.159Z,102958.81
2023-09-04T05:51:47.629Z,102957.38
2023-09-04T05:54:14.165Z,102954.22
2023-09-04T05:56:40.642Z,102954.59
2023-09-04T05:59:07.118Z,102953.97
2023-09-04T06:01:33.582Z,102951.56
2023-09-04T06:04:00.125Z,102959.81
2023-09-04T06:06:26.664Z,102961.88
2023-09-04T06:08:53.159Z,102970.13
2023-09-04T06:11:19.602Z,102955.16
2023-09-04T06:13:46.099Z,102967.94
2023-09-04T06:16:13.992Z,102965.47
2023-09-04T06:18:40.483Z,102969.22
2023-09-04T06:21:06.981Z,102962.28
2023-09-04T06:23:33.523Z,102961.75
2023-09-04T06:26:03.701Z,102961.25
2023-09-04T06:28:30.163Z,102974.97
2023-09-04T06:30:57.018Z,102972.66
2023-09-04T06:33:25.386Z,102969.44
2023-09-04T06:35:51.974Z,102964.56
2023-09-04T06:38:18.410Z,102957.72
2023-09-04T06:40:44.860Z,102955.50
2023-09-04T06:43:11.349Z,102959.63
2023-09-04T06:45:38.942Z,102959.25
2023-09-04T06:48:08.512Z,102959.69
2023-09-04T06:50:35.020Z,102953.22
2023-09-04T06:53:01.521Z,102959.19
2023-09-04T06:55:27.987Z,102955.38
2023-09-04T06:57:54.446Z,102951.44
2023-09-04T07:00:20.994Z,102957.28
2023-09-04T07:02:47.983Z,102953.34
2023-09-04T07:05:14.520Z,102952.69
2023-09-04T07:07:40.968Z,102945.94
2023-09-04T07:10:07.780Z,102940.16
2023-09-04T07:12:35.589Z,102934.13
2023-09-04T07:15:02.076Z,102924.81
2023-09-04T07:17:28.678Z,102926.09
2023-09-04T07:19:55.260Z,102928.44
2023-09-04T07:22:21.727Z,102931.53
2023-09-04T07:24:48.225Z,102932.84
2023-09-04T07:27:14.745Z,102934.09
2023-09-04T07:29:41.197Z,102935.41
2023-09-04T07:32:07.871Z,102936.97
2023-09-04T07:34:36.496Z,102938.69
2023-09-04T07:37:03.990Z,102938.97
2023-09-04T07:39:30.546Z,102946.47
2023-09-04T07:41:59.891Z,102939.94
2023-09-04T07:44:26.358Z,102942.09
2023-09-04T07:46:54.111Z,102939.72
2023-09-04T07:49:20.821Z,102932.78
2023-09-04T07:51:47.681Z,102933.78
2023-09-04T07:54:14.143Z,102932.00
2023-09-04T07:56:42.627Z,102927.59
2023-09-04T07:59:09.796Z,102935.66
2023-09-04T08:01:36.326Z,102933.78
2023-09-04T08:04:04.116Z,102924.91
2023-09-04T08:06:30.826Z,102931.81
2023-09-04T08:08:57.332Z,102934.59
2023-09-04T08:11:23.809Z,102932.91
2023-09-04T08:13:50.364Z,102934.59
2023-09-04T08:16:16.989Z,102934.00
2023-09-04T08:18:43.483Z,102934.97
2023-09-04T08:21:10.041Z,102932.53
2023-09-04T08:23:36.511Z,102924.03
2023-09-04T08:26:04.381Z,102921.72
2023-09-04T08:28:31.014Z,102917.44
2023-09-04T08:30:58.085Z,102921.53
2023-09-04T08:33:25.168Z,102915.94
2023-09-04T08:35:52.060Z,102916.75
2023-09-04T08:38:18.637Z,102917.03
2023-09-04T08:40:45.262Z,102912.00
2023-09-04T08:43:11.893Z,102918.09
2023-09-04T08:45:41.163Z,102914.97
2023-09-04T08:48:09.421Z,102920.88
2023-09-04T08:50:38.988Z,102916.03
2023-09-04T08:53:05.527Z,102921.97
2023-09-04T08:55:35.169Z,102921.81
2023-09-04T08:58:02.370Z,102921.66
2023-09-04T09:00:29.913Z,102911.41
2023-09-04T09:03:01.831Z,102907.56
2023-09-04T09:05:29.830Z,102908.81
2023-09-04T09:07:56.386Z,102902.56
2023-09-04T09:10:23.681Z,102906.47
2023-09-04T09:12:50.267Z,102904.63
2023-09-04T09:15:18.615Z,102900.63
2023-09-04T09:17:54.344Z,102904.88
2023-09-04T09:20:30.245Z,102901.53
2023-09-04T09:22:57.064Z,102895.88
2023-09-04T09:25:23.751Z,102898.28
2023-09-04T09:27:50.297Z,102896.63
2023-09-04T09:30:16.796Z,102896.00
2023-09-04T09:32:43.650Z,102902.66
2023-09-04T09:35:10.635Z,102901.00
2023-09-04T09:37:37.257Z,102903.06
2023-09-04T09:40:06.430Z,102904.13
2023-09-04T09:42:32.912Z,102904.50
2023-09-04T09:44:59.360Z,102901.47
2023-09-04T09:47:27.186Z,102906.09
2023-09-04T09:49:55.750Z,102909.13
2023-09-04T09:52:22.228Z,102906.84
2023-09-04T09:54:48.714Z,102895.06
2023-09-04T09:57:16.754Z,102898.00
2023-09-04T09:59:44.641Z,102890.25
2023-09-04T10:02:16.422Z,102885.19
2023-09-04T10:04:43.016Z,102891.66
2023-09-04T10:07:10.776Z,102883.91
2023-09-04T10:09:43.410Z,102879.19
2023-09-04T10:12:16.346Z,102879.38
2023-09-04T10:14:43.744Z,102873.13
2023-09-04T10:17:15.695Z,102870.94
2023-09-04T10:19:43.478Z,102871.09
2023-09-04T10:22:13.132Z,102869.44
2023-09-04T10:24:42.811Z,102867.53
2023-09-04T10:27:10.397Z,102858.44
2023-09-04T10:29:46.257Z,102854.56
2023-09-04T10:32:13.670Z,102865.38
2023-09-04T10:34:41.377Z,102858.09
2023-09-04T10:37:12.116Z,102851.50
2023-09-04T10:39:39.774Z,102857.22
2023-09-04T10:42:07.026Z,102852.66
2023-09-04T10:44:50.812Z,102846.59
2023-09-04T10:47:17.581Z,102840.53
2023-09-04T10:49:44.471Z,102842.22
2023-09-04T10:52:11.318Z,102842.38
2023-09-04T10:54:38.310Z,102844.53
2023-09-04T10:57:09.165Z,102834.91
2023-09-04T10:59:54.046Z,102836.06
2023-09-04T11:02:34.061Z,102833.56
2023-09-04T11:05:04.210Z,102824.94
2023-09-04T11:07:36.187Z,102824.41
2023-09-04T11:10:04.731Z,102819.34
2023-09-04T11:12:36.316Z,102811.75
2023-09-04T11:15:10.449Z,102808.69
2023-09-04T11:17:38.873Z,102809.13
2023-09-04T11:20:05.634Z,102811.66
2023-09-04T11:22:33.691Z,102802.50
2023-09-04T11:25:00.253Z,102804.69
2023-09-04T11:27:27.180Z,102799.91
2023-09-04T11:29:53.731Z,102797.53
2023-09-04T11:32:20.558Z,102801.59
2023-09-04T11:34:48.380Z,102799.66
2023-09-04T11:37:14.861Z,102814.47
2023-09-04T11:40:01.020Z,102814.97
2023-09-04T11:42:29.801Z,102817.13
2023-09-04T11:44:56.295Z,102805.66
2023-09-04T11:47:23.448Z,102811.19
2023-09-04T11:49:50.475Z,102806.16
2023-09-04T11:52:20.178Z,102800.75
2023-09-04T11:54:46.708Z,102801.91
2023-09-04T11:57:13.580Z,102795.84
2023-09-04T11:59:41.469Z,102799.69
2023-09-04T12:02:08.941Z,102785.47
2023-09-04T12:04:35.824Z,102780.25
2023-09-04T12:07:03.110Z,102789.34
2023-09-04T12:09:29.954Z,102783.28
2023-09-04T12:11:57.389Z,102786.97
2023-09-04T12:14:23.875Z,102782.59
2023-09-04T12:16:50.420Z,102788.81
2023-09-04T12:19:17.998Z,102783.59
2023-09-04T12:21:44.995Z,102771.13
2023-09-04T12:24:12.405Z,102771.25
2023-09-04T12:26:39.042Z,102764.19
2023-09-04T12:29:05.515Z,102765.19
2023-09-04T12:31:32.187Z,102771.56
2023-09-04T12:33:58.827Z,102761.78
2023-09-04T12:36:25.285Z,102771.72
2023-09-04T12:38:51.774Z,102770.88
2023-09-04T12:41:18.225Z,102768.88
2023-09-04T12:43:45.515Z,102765.34
2023-09-04T12:46:13.113Z,102764.50
2023-09-04T12:48:41.653Z,102751.88
2023-09-04T12:51:08.721Z,102751.72
2023-09-04T12:53:35.428Z,102745.47
2023-09-04T12:56:04.407Z,102742.09
2023-09-04T12:58:31.186Z,102734.84
2023-09-04T13:00:57.822Z,102731.47
2023-09-04T13:03:25.228Z,102727.63
2023-09-04T13:05:53.322Z,102722.38
2023-09-04T13:08:19.763Z,102716.13
2023-09-04T13:10:46.235Z,102717.84
2023-09-04T13:13:12.725Z,102718.69
2023-09-04T13:15:39.513Z,102715.13
2023-09-04T13:18:06.100Z,102705.03
2023-09-04T13:20:32.671Z,102697.97
2023-09-04T13:22:59.138Z,102696.81
2023-09-04T13:25:26.095Z,102690.56
2023-09-04T13:27:52.547Z,102688.56
2023-09-04T13:30:19.897Z,102688.41
2023-09-04T13:32:46.448Z,102683.88
2023-09-04T13:35:12.929Z,102682.00
2023-09-04T13:37:39.597Z,102681.84
2023-09-04T13:40:07.200Z,102669.22
2023-09-04T13:42:33.687Z,102666.53
2023-09-04T13:45:01.138Z,102666.38
2023-09-04T13:47:28.030Z,102660.97
2023-09-04T13:49:55.419Z,102658.28
2023-09-04T13:52:25.344Z,102660.97
2023-09-04T13:54:53.164Z,102657.44
2023-09-04T13:57:19.940Z,102650.22
2023-09-04T13:59:46.604Z,102656.09
2023-09-04T14:02:13.093Z,102652.41
2023-09-04T14:04:39.667Z,102649.69
2023-09-04T14:07:06.127Z,102647.00
2023-09-04T14:12:00.160Z,102648.56
2023-09-04T14:14:26.826Z,102645.56
2023-09-04T14:16:53.332Z,102642.03
2023-09-04T14:19:19.957Z,102649.09
2023-09-04T14:21:46.454Z,102644.56
2023-09-04T14:24:15.071Z,102639.84
2023-09-04T14:26:41.593Z,102644.03
2023-09-04T14:29:08.178Z,102628.88
2023-09-04T14:31:34.675Z,102627.88
2023-09-04T14:34:04.549Z,102627.03
2023-09-04T14:36:31.214Z,102633.94
2023-09-04T14:38:59.975Z,102635.78
2023-09-04T14:41:33.378Z,102634.78
2023-09-04T14:44:00.112Z,102630.41
2023-09-04T14:46:26.797Z,102636.47
2023-09-04T14:48:54.178Z,102637.50
2023-09-04T14:51:21.237Z,102634.78
2023-09-04T14:53:50.623Z,102633.94
2023-09-04T14:56:17.194Z,102629.41
2023-09-04T14:58:43.709Z,102624.84
2023-09-04T15:01:19.710Z,102617.44
2023-09-04T15:03:47.255Z,102615.75
2023-09-04T15:06:14.223Z,102612.06
2023-09-04T15:08:40.834Z,102604.97
2023-09-04T15:11:14.528Z,102608.34
2023-09-04T15:13:43.822Z,102608.53
2023-09-04T15:16:10.796Z,102601.13
2023-09-04T15:18:37.411Z,102602.81
2023-09-04T15:21:05.866Z,102596.56
2023-09-04T15:23:32.698Z,102595.56
2023-09-04T15:25:59.227Z,102598.09
2023-09-04T15:28:26.027Z,102599.94
2023-09-04T15:30:52.778Z,102596.25
2023-09-04T15:33:19.293Z,102591.69
2023-09-04T15:35:48.382Z,102578.22
2023-09-04T15:38:15.398Z,102576.38
2023-09-04T15:40:41.955Z,102570.97
2023-09-04T15:43:08.487Z,102569.09
2023-09-04T15:45:39.388Z,102566.22
2023-09-04T15:48:06.150Z,102568.09
2023-09-04T15:50:32.639Z,102568.28
2023-09-04T15:53:00.446Z,102566.38
2023-09-04T15:55:26.872Z,102561.84
2023-09-04T15:57:53.301Z,102560.84
2023-09-04T16:00:19.740Z,102555.59
2023-09-04T16:02:46.239Z,102559.16
2023-09-04T16:05:12.739Z,102556.44
2023-09-04T16:07:39.250Z,102556.44
2023-09-04T16:10:05.991Z,102557.28
2023-09-04T16:12:32.443Z,102548.72
2023-09-04T16:14:58.945Z,102549.41
2023-09-04T16:17:25.442Z,102547.34
2023-09-04T16:19:52.013Z,102556.44
2023-09-04T16:22:18.535Z,102549.19
2023-09-04T16:24:46.232Z,102548.38
2023-09-04T16:27:12.979Z,102552.09
2023-09-04T16:29:39.482Z,102550.22
2023-09-04T16:32:06.554Z,102549.41
2023-09-04T16:34:33.125Z,102549.19
2023-09-04T16:36:59.599Z,102556.44
2023-09-04T16:39:26.049Z,102562.69
2023-09-04T16:41:52.495Z,102564.38
2023-09-04T16:44:18.935Z,102561.84
2023-09-04T16:46:46.391Z,102561.00
2023-09-04T16:49:12.980Z,102555.59
2023-09-04T16:51:50.625Z,102551.25
2023-09-04T16:54:22.569Z,102547.88
2023-09-04T16:56:49.006Z,102543.50
2023-09-04T16:59:15.477Z,102539.09
2023-09-04T17:01:42.000Z,102536.56
2023-09-04T17:04:09.392Z,102539.09
2023-09-04T17:06:35.967Z,102541.13
2023-09-04T17:09:03.187Z,102544.81
2023-09-04T17:11:29.792Z,102535.03
2023-09-04T17:13:56.241Z,102536.88
2023-09-04T17:16:22.815Z,102526.44
2023-09-04T17:18:49.559Z,102517.69
2023-09-04T17:21:16.096Z,102523.25
2023-09-04T17:23:42.555Z,102516.31
2023-09-04T17:26:09.080Z,102524.41
2023-09-04T17:28:35.503Z,102519.19
2023-09-04T17:31:07.281Z,102521.03
2023-09-04T17:33:34.078Z,102510.25
2023-09-04T17:36:03.731Z,102504.16
2023-09-04T17:38:40.823Z,102510.53
2023-09-04T17:41:08.190Z,102511.91
2023-09-04T17:43:34.902Z,102512.06
2023-09-04T17:46:01.460Z,102507.69
2023-09-04T17:48:28.151Z,102506.84
2023-09-04T17:50:54.708Z,102500.06
2023-09-04T17:53:21.439Z,102494.69
2023-09-04T17:55:47.983Z,102492.16
2023-09-04T17:58:14.846Z,102499.41
2023-09-04T18:00:41.603Z,102495.00
2023-09-04T18:03:08.411Z,102484.38
2023-09-04T18:05:35.671Z,102489.97
2023-09-04T18:08:02.172Z,102477.50
2023-09-04T18:10:28.699Z,102475.13
2023-09-04T18:12:55.185Z,102479.16
2023-09-04T18:15:24.403Z,102470.22
2023-09-04T18:17:51.161Z,102465.84
2023-09-04T18:20:17.922Z,102468.69
2023-09-04T18:22:47.442Z,102458.13
2023-09-04T18:25:16.203Z,102467.34
2023-09-04T18:27:46.073Z,102458.75
2023-09-04T18:30:15.031Z,102463.28
2023-09-04T18:32:41.617Z,102460.75
2023-09-04T18:35:08.441Z,102459.06
2023-09-04T18:37:34.990Z,102455.69
2023-09-04T18:40:01.506Z,102454.00
2023-09-04T18:42:28.068Z,102448.81
2023-09-04T18:44:54.668Z,102455.19
2023-09-04T18:47:21.170Z,102458.91
2023-09-04T18:49:52.180Z,102458.22
2023-09-04T18:52:20.905Z,102460.22
2023-09-04T18:54:48.276Z,102463.91
2023-09-04T18:57:15.578Z,102463.91
2023-09-04T18:59:42.199Z,102471.16
2023-09-04T19:02:08.960Z,102475.53
2023-09-04T19:04:38.770Z,102472.16
2023-09-04T19:07:05.255Z,102477.69
2023-09-04T19:09:32.629Z,102471.47
2023-09-04T19:11:59.158Z,102474.31
2023-09-04T19:14:25.657Z,102477.84
2023-09-04T19:16:52.118Z,102472.47
2023-09-04T19:19:18.706Z,102476.19
2023-09-04T19:21:45.676Z,102468.28
2023-09-04T19:24:12.281Z,102471.13
2023-09-04T19:26:38.913Z,102474.81
2023-09-04T19:29:05.434Z,102475.16
2023-09-04T19:31:32.118Z,102471.03
2023-09-04T19:33:58.653Z,102476.94
2023-09-04T19:36:27.595Z,102473.03
2023-09-04T19:38:54.658Z,102469.81
2023-09-04T19:41:21.558Z,102464.38
2023-09-04T19:43:48.073Z,102462.84
2023-09-04T19:46:14.591Z,102463.34
2023-09-04T19:48:41.122Z,102466.50
2023-09-04T19:51:07.603Z,102452.91
2023-09-04T19:53:34.110Z,102460.44
2023-09-04T19:56:00.612Z,102459.91
2023-09-04T19:58:27.466Z,102459.06
2023-09-04T20:00:54.172Z,102454.88
2023-09-04T20:03:20.707Z,102451.97
2023-09-04T20:05:47.353Z,102456.66
2023-09-04T20:08:13.809Z,102452.56
2023-09-04T20:10:41.057Z,102458.13
2023-09-04T20:13:07.581Z,102450.53
2023-09-04T20:15:34.081Z,102449.00
2023-09-04T20:18:01.783Z,102451.16
2023-09-04T20:20:28.464Z,102446.38
2023-09-04T20:22:55.350Z,102448.53
2023-09-04T20:25:21.877Z,102440.06
2023-09-04T20:27:48.420Z,102429.81
2023-09-04T20:30:14.931Z,102429.28
2023-09-04T20:32:41.701Z,102420.38
2023-09-04T20:35:08.674Z,102424.91
2023-09-04T20:37:36.576Z,102425.75
2023-09-04T20:40:03.622Z,102427.75
2023-09-04T20:42:31.277Z,102434.44
2023-09-04T20:44:57.900Z,102419.16
2023-09-04T20:47:24.398Z,102417.47
2023-09-04T20:49:50.884Z,102414.41
2023-09-04T20:52:17.397Z,102424.00
2023-09-04T20:54:43.927Z,102420.91
2023-09-04T20:57:10.462Z,102420.22
2023-09-04T20:59:36.919Z,102419.53
2023-09-04T21:02:03.455Z,102418.03
2023-09-04T21:04:29.976Z,102415.50
2023-09-04T21:06:56.422Z,102426.41
2023-09-04T21:09:22.810Z,102422.03
2023-09-04T21:12:07.808Z,102419.63
2023-09-04T21:14:53.030Z,102422.47
2023-09-04T21:17:38.159Z,102417.09
2023-09-04T21:20:23.263Z,102420.13
2023-09-04T21:23:08.490Z,102422.63
2023-09-04T21:25:53.666Z,102418.28
2023-09-04T21:28:38.904Z,102417.88
2023-09-04T21:31:24.255Z,102419.88
2023-09-04T21:34:09.382Z,102422.72
2023-09-04T21:36:54.557Z,102415.94
2023-09-04T21:39:39.629Z,102409.91
2023-09-04T21:42:24.715Z,102415.59
2023-09-04T21:45:10.039Z,102412.06
2023-09-04T21:47:55.095Z,102402.31
2023-09-04T21:50:40.311Z,102416.16
2023-09-04T21:53:25.852Z,102416.28
2023-09-04T21:58:56.128Z,102403.19
2023-09-04T22:01:41.310Z,102395.13
2023-09-04T22:04:26.354Z,102394.44
2023-09-04T22:07:11.451Z,102408.03
2023-09-04T22:09:56.572Z,102401.94
2023-09-04T22:12:41.824Z,102404.78
2023-09-04T22:15:27.045Z,102405.09
2023-09-04T22:18:12.029Z,102401.72
2023-09-04T22:20:57.263Z,102405.72
2023-09-04T22:23:42.566Z,102399.78
2023-09-04T22:26:27.736Z,102402.63
2023-09-04T22:29:13.040Z,102401.91
2023-09-04T22:31:58.427Z,102394.72
2023-09-04T22:34:43.601Z,102398.41
2023-09-04T22:37:28.912Z,102400.56
2023-09-04T22:40:13.727Z,102402.69
2023-09-04T22:42:58.944Z,102404.69
2023-09-04T22:45:44.118Z,102403.84
2023-09-04T22:48:29.513Z,102397.63
2023-09-04T22:51:14.653Z,102395.09
2023-09-04T22:53:59.755Z,102398.94
2023-09-04T22:56:46.692Z,102399.09
2023-09-04T22:59:31.904Z,102393.88
2023-09-04T23:02:16.751Z,102401.22
2023-09-04T23:05:01.961Z,102390.06
2023-09-04T23:07:47.150Z,102393.09
2023-09-04T23:10:32.436Z,102393.53
2023-09-04T23:13:17.656Z,102387.75
2023-09-04T23:16:02.928Z,102386.91
2023-09-04T23:18:48.079Z,102380.16
2023-09-04T23:21:14.462Z,102376.59
2023-09-04T23:23:49.793Z,102381.41
2023-09-04T23:26:36.901Z,102378.88
2023-09-04T23:29:04.598Z,102380.00
2023-09-04T23:31:31.121Z,102378.59
2023-09-04T23:34:00.971Z,102376.09
2023-09-04T23:36:33.872Z,102377.38
2023-09-04T23:39:10.461Z,102373.72
2023-09-04T23:41:55.650Z,102370.19
2023-09-04T23:44:40.611Z,102373.72
2023-09-04T23:47:07.137Z,102369.34
2023-09-04T23:49:34.317Z,102367.63
2023-09-04T23:52:00.907Z,102369.47
2023-09-04T23:54:30.056Z,102358.75
2023-09-04T23:56:57.317Z,102354.38
2023-09-04T23:59:24.519Z,102361.72
